createdAt,value
2022-12-25T00:04:00.492Z,99.99
2022-12-25T00:09:00.280Z,99.99
2022-12-25T00:14:00.250Z,99.99
2022-12-25T00:19:00.227Z,99.99
2022-12-25T00:24:00.223Z,99.99
2022-12-25T00:29:00.192Z,99.99
2022-12-25T00:34:00.131Z,99.99
2022-12-25T00:39:00.117Z,99.99
2022-12-25T00:44:00.084Z,99.99
2022-12-25T00:49:00.033Z,99.99
2022-12-25T00:54:00.049Z,99.99
2022-12-25T00:59:00.048Z,99.99
2022-12-25T01:03:59.972Z,99.99
2022-12-25T01:08:59.910Z,99.99
2022-12-25T01:13:59.903Z,99.99
2022-12-25T01:18:59.895Z,99.99
2022-12-25T01:23:59.884Z,99.99
2022-12-25T01:28:59.847Z,99.99
2022-12-25T01:33:59.841Z,99.99
2022-12-25T01:38:59.809Z,99.99
2022-12-25T01:43:59.754Z,99.99
2022-12-25T01:48:59.736Z,99.99
2022-12-25T01:53:59.732Z,99.99
2022-12-25T01:58:59.699Z,99.99
2022-12-25T02:03:59.669Z,99.99
2022-12-25T02:08:59.636Z,99.99
2022-12-25T02:13:59.629Z,99.99
2022-12-25T02:18:59.584Z,99.99
2022-12-25T02:23:59.547Z,99.99
2022-12-25T02:28:59.502Z,99.99
2022-12-25T02:33:59.463Z,99.99
2022-12-25T02:38:59.423Z,99.99
2022-12-25T02:43:59.374Z,99.99
2022-12-25T02:48:59.316Z,99.99
2022-12-25T02:53:59.315Z,99.99
2022-12-25T02:58:59.261Z,99.99
2022-12-25T03:03:59.261Z,99.99
2022-12-25T03:08:59.195Z,99.99
2022-12-25T03:13:59.178Z,99.99
2022-12-25T03:18:59.173Z,99.99
2022-12-25T03:23:59.180Z,99.99
2022-12-25T03:28:59.127Z,99.99
2022-12-25T03:33:59.119Z,99.99
2022-12-25T03:38:59.093Z,99.99
2022-12-25T03:43:59.079Z,99.99
2022-12-25T03:48:59.076Z,99.99
2022-12-25T03:53:59.076Z,99.99
2022-12-25T03:58:59.047Z,99.99
2022-12-25T04:03:59.033Z,99.99
2022-12-25T04:08:59.005Z,99.99
2022-12-25T04:13:58.973Z,99.99
2022-12-25T04:18:58.947Z,99.99
2022-12-25T04:23:58.914Z,99.99
2022-12-25T04:28:58.887Z,99.99
2022-12-25T04:33:58.869Z,99.99
2022-12-25T04:38:58.838Z,99.99
2022-12-25T04:43:58.804Z,99.99
2022-12-25T04:48:58.777Z,99.99
2022-12-25T04:53:58.733Z,99.99
2022-12-25T04:58:58.698Z,99.99
2022-12-25T05:03:58.723Z,99.99
2022-12-25T05:08:58.612Z,99.99
2022-12-25T05:13:58.585Z,99.99
2022-12-25T05:18:58.547Z,99.99
2022-12-25T05:23:58.520Z,99.99
2022-12-25T05:28:58.491Z,99.99
2022-12-25T05:33:58.468Z,99.99
2022-12-25T05:38:58.435Z,99.99
2022-12-25T05:43:58.413Z,99.99
2022-12-25T05:48:58.340Z,99.99
2022-12-25T05:53:58.305Z,99.99
2022-12-25T05:58:58.285Z,99.99
2022-12-25T06:03:58.358Z,99.99
2022-12-25T06:08:58.217Z,99.99
2022-12-25T06:13:58.189Z,99.99
2022-12-25T06:18:58.171Z,99.99
2022-12-25T06:23:58.194Z,99.99
2022-12-25T06:28:58.094Z,99.99
2022-12-25T06:33:58.038Z,99.99
2022-12-25T06:38:57.989Z,99.99
2022-12-25T06:43:57.967Z,99.99
2022-12-25T06:48:57.937Z,99.99
2022-12-25T06:53:57.893Z,99.99
2022-12-25T06:58:57.863Z,99.99
2022-12-25T07:03:57.844Z,99.99
2022-12-25T07:08:57.827Z,99.99
2022-12-25T07:13:57.816Z,99.99
2022-12-25T07:18:57.750Z,99.99
2022-12-25T07:23:57.713Z,99.99
2022-12-25T07:28:57.665Z,99.99
2022-12-25T07:33:57.643Z,99.99
2022-12-25T07:38:57.590Z,99.99
2022-12-25T07:43:57.560Z,99.99
2022-12-25T07:48:57.537Z,99.99
2022-12-25T07:53:57.504Z,99.99
2022-12-25T07:58:57.491Z,99.99
2022-12-25T08:03:57.582Z,99.99
2022-12-25T08:08:57.431Z,99.99
2022-12-25T08:13:57.407Z,99.99
2022-12-25T08:18:57.345Z,99.99
2022-12-25T08:23:57.346Z,99.99
2022-12-25T08:28:57.308Z,99.99
2022-12-25T08:33:57.304Z,99.99
2022-12-25T08:39:02.788Z,99.99
2022-12-25T08:43:57.209Z,99.99
2022-12-25T08:48:57.190Z,99.99
2022-12-25T08:53:57.140Z,99.99
2022-12-25T08:58:57.116Z,99.99
2022-12-25T09:03:57.094Z,99.99
2022-12-25T09:08:57.063Z,99.99
2022-12-25T09:13:57.040Z,99.99
2022-12-25T09:18:57.012Z,99.99
2022-12-25T09:23:56.954Z,99.99
2022-12-25T09:28:56.922Z,99.99
2022-12-25T09:33:56.906Z,99.99
2022-12-25T09:38:56.868Z,99.99
2022-12-25T09:43:56.836Z,99.99
2022-12-25T09:48:56.805Z,99.99
2022-12-25T09:53:56.768Z,99.99
2022-12-25T09:58:56.755Z,99.99
2022-12-25T10:03:56.823Z,99.99
2022-12-25T10:08:56.711Z,99.63
2022-12-25T10:13:56.706Z,99.17
2022-12-25T10:18:56.651Z,99.08
2022-12-25T10:23:56.628Z,98.31
2022-12-25T10:28:56.607Z,97.85
2022-12-25T10:33:56.573Z,97.96
2022-12-25T10:38:56.546Z,97.14
2022-12-25T10:43:56.502Z,97.08
2022-12-25T10:48:56.459Z,98.32
2022-12-25T10:53:56.421Z,98.43
2022-12-25T10:58:56.383Z,98.57
2022-12-25T11:03:56.338Z,99.51
2022-12-25T11:08:56.303Z,98.88
2022-12-25T11:13:56.266Z,99.09
2022-12-25T11:18:56.256Z,99.99
2022-12-25T11:23:56.198Z,99.46
2022-12-25T11:28:56.198Z,99.05
2022-12-25T11:33:56.157Z,99.05
2022-12-25T11:38:56.115Z,98.27
2022-12-25T11:43:56.059Z,99.14
2022-12-25T11:48:56.021Z,99.44
2022-12-25T11:53:56.010Z,99.92
2022-12-25T11:58:55.981Z,99.24
2022-12-25T12:03:55.994Z,99.96
2022-12-25T12:08:55.951Z,99.99
2022-12-25T12:13:55.872Z,99.99
2022-12-25T12:18:55.880Z,99.96
2022-12-25T12:23:55.813Z,99.96
2022-12-25T12:28:55.811Z,99.86
2022-12-25T12:33:55.801Z,99.61
2022-12-25T12:38:55.759Z,99.19
2022-12-25T12:43:55.720Z,99.40
2022-12-25T12:48:55.709Z,99.40
2022-12-25T12:53:55.665Z,99.92
2022-12-25T12:58:55.668Z,99.71
2022-12-25T13:03:55.573Z,99.40
2022-12-25T13:08:55.585Z,99.46
2022-12-25T13:13:55.506Z,99.82
2022-12-25T13:18:55.516Z,99.82
2022-12-25T13:23:55.487Z,99.92
2022-12-25T13:28:55.496Z,99.92
2022-12-25T13:33:55.445Z,99.99
2022-12-25T13:38:55.418Z,99.99
2022-12-25T13:43:55.358Z,99.99
2022-12-25T13:48:55.317Z,99.99
2022-12-25T13:53:55.317Z,99.99
2022-12-25T13:58:55.261Z,99.99
2022-12-25T14:03:55.195Z,99.99
2022-12-25T14:08:55.213Z,99.99
2022-12-25T14:13:55.115Z,99.99
2022-12-25T14:18:55.174Z,99.99
2022-12-25T14:23:55.101Z,99.56
2022-12-25T14:28:55.061Z,99.46
2022-12-25T14:33:55.027Z,99.66
2022-12-25T14:38:54.982Z,99.77
2022-12-25T14:43:54.951Z,99.77
2022-12-25T14:48:54.917Z,99.98
2022-12-25T14:53:54.900Z,99.66
2022-12-25T14:58:54.836Z,99.72
2022-12-25T15:03:54.861Z,99.99
2022-12-25T15:08:54.793Z,99.99
2022-12-25T15:13:54.751Z,99.72
2022-12-25T15:18:54.735Z,99.72
2022-12-25T15:23:54.669Z,99.93
2022-12-25T15:28:54.670Z,99.99
2022-12-25T15:33:54.598Z,99.99
2022-12-25T15:38:54.562Z,99.99
2022-12-25T15:43:54.549Z,99.99
2022-12-25T15:48:54.524Z,99.99
2022-12-25T15:53:54.477Z,99.99
2022-12-25T15:58:54.455Z,99.99
2022-12-25T16:03:54.539Z,99.99
2022-12-25T16:08:54.385Z,99.99
2022-12-25T16:13:54.341Z,99.99
2022-12-25T16:18:54.305Z,99.99
2022-12-25T16:23:54.277Z,99.99
2022-12-25T16:28:54.256Z,99.99
2022-12-25T16:33:54.243Z,99.99
2022-12-25T16:38:54.225Z,99.99
2022-12-25T16:43:54.211Z,99.99
2022-12-25T16:48:54.202Z,99.99
2022-12-25T16:53:54.148Z,99.99
2022-12-25T16:58:54.128Z,99.99
2022-12-25T17:03:54.210Z,99.99
2022-12-25T17:08:54.052Z,99.99
2022-12-25T17:13:54.003Z,99.99
2022-12-25T17:18:54.004Z,99.99
2022-12-25T17:23:58.171Z,99.99
2022-12-25T17:28:53.950Z,99.99
2022-12-25T17:33:53.895Z,99.99
2022-12-25T17:38:53.877Z,99.99
2022-12-25T17:43:53.861Z,99.99
2022-12-25T17:48:53.849Z,99.99
2022-12-25T17:53:53.829Z,99.99
2022-12-25T17:58:53.842Z,99.99
2022-12-25T18:03:53.824Z,99.99
2022-12-25T18:08:53.791Z,99.99
2022-12-25T18:13:53.761Z,99.99
2022-12-25T18:18:53.722Z,99.99
2022-12-25T18:23:53.728Z,99.99
2022-12-25T18:28:53.763Z,99.99
2022-12-25T18:33:53.587Z,99.99
2022-12-25T18:38:53.600Z,99.99
2022-12-25T18:43:55.781Z,99.99
2022-12-25T18:48:53.545Z,99.99
2022-12-25T18:53:53.493Z,99.99
2022-12-25T18:58:53.508Z,99.99
2022-12-25T19:03:58.644Z,99.99
2022-12-25T19:08:53.434Z,99.99
2022-12-25T19:13:53.449Z,99.99
2022-12-25T19:18:53.407Z,99.99
2022-12-25T19:23:53.332Z,99.99
2022-12-25T19:28:53.341Z,99.99
2022-12-25T19:33:53.295Z,99.99
2022-12-25T19:38:53.329Z,99.99
2022-12-25T19:43:53.264Z,99.99
2022-12-25T19:48:53.307Z,99.99
2022-12-25T19:53:53.225Z,99.99
2022-12-25T19:58:53.194Z,99.99
2022-12-25T20:03:53.191Z,99.99
2022-12-25T20:08:53.137Z,99.99
2022-12-25T20:13:53.099Z,99.99
2022-12-25T20:18:53.091Z,99.99
2022-12-25T20:23:53.069Z,99.99
2022-12-25T20:28:53.054Z,99.99
2022-12-25T20:33:53.032Z,99.99
2022-12-25T20:38:52.975Z,99.99
2022-12-25T20:43:52.983Z,99.99
2022-12-25T20:48:53.261Z,99.99
2022-12-25T20:53:52.892Z,99.99
2022-12-25T20:58:52.878Z,99.99
2022-12-25T21:03:53.000Z,99.99
2022-12-25T21:08:52.817Z,99.99
2022-12-25T21:13:52.733Z,99.99
2022-12-25T21:18:52.710Z,99.99
2022-12-25T21:23:52.678Z,99.99
2022-12-25T21:28:52.641Z,99.99
2022-12-25T21:33:53.063Z,99.99
2022-12-25T21:38:52.551Z,99.99
2022-12-25T21:43:52.520Z,99.99
2022-12-25T21:48:52.496Z,99.99
2022-12-25T21:53:52.443Z,99.99
2022-12-25T21:58:52.461Z,99.99
2022-12-25T22:03:52.407Z,99.99
2022-12-25T22:08:52.379Z,99.99
2022-12-25T22:13:52.360Z,99.99
2022-12-25T22:18:52.295Z,99.99
2022-12-25T22:23:52.276Z,99.99
2022-12-25T22:28:52.263Z,99.99
2022-12-25T22:33:52.231Z,99.99
2022-12-25T22:38:52.192Z,99.99
2022-12-25T22:44:16.455Z,99.99
2022-12-25T22:48:52.146Z,99.99
2022-12-25T22:53:52.114Z,99.99
2022-12-25T22:58:52.121Z,99.99
2022-12-25T23:03:52.165Z,99.99
2022-12-25T23:08:52.063Z,99.99
2022-12-25T23:13:52.030Z,99.99
2022-12-25T23:18:52.006Z,99.99
2022-12-25T23:23:51.995Z,99.99
2022-12-25T23:28:51.960Z,99.99
2022-12-25T23:33:51.988Z,99.99
2022-12-25T23:38:51.936Z,99.99
2022-12-25T23:43:51.885Z,99.99
2022-12-25T23:48:51.869Z,99.99
2022-12-25T23:53:51.837Z,99.99
2022-12-25T23:58:51.961Z,99.99
